Aviation Digital Data Service (ADDS)

Output produced by METARs form (1826 UTC 16 August 2018)
found at http://www.aviationweather.gov/adds/metars/
 
TAF HBBA 161100Z 1612/1718 18010KT 8000 FEW030 
     BECMG 1616/1618 00000KT CAVOK 
     BECMG 1702/1704 36002KT 5000 HZ FEW025 SCT100 BCMG 1707/1709 18010G20KT 7000 FEW030 BKN100 BCMG 1716/1718 VRB02KT CAVOK